北海道・東北TAF電文


新千歳(RJCC)
5/24 2h
TAF RJCC 231705Z 2318/2500 35012KT 9999 FEW005 BKN015 TEMPO
2318/2400 3000 -SHRA BR FEW003 BKN005 TEMPO 2400/2403
FEW003 BKN006 BECMG 2402/2404 35022KT TEMPO 2403/2412
35025G35KT=

旭川(RJEC)
5/24 2h
TAF RJEC 231705Z 2318/2500 31012KT 9999 FEW008 BKN015 TEMPO
2318/2400 3000 SHRA BR FEW003 BKN005 TEMPO 2400/2403 FEW005
BKN008=

帯広(RJCB)
5/24 2h
TAF RJCB 231705Z 2318/2500 32005KT 9999 FEW005 BKN015 TEMPO
2321/2406 4000 -SHRA BR FEW003 BKN005 TEMPO 2406/2409
FEW005 BKN008 BECMG 2418/2421 33020KT=

釧路(RJCK)
5/24 2h
TAF RJCK 231705Z 2318/2500 02006KT 9999 FEW005 BKN015 TEMPO
2321/2400 4000 -SHRA BR FEW002 BKN005 TEMPO 2400/2406 3000
SHRA BR FEW002 BKN005 TEMPO 2406/2409 4000 -SHRA BR FEW002
BKN005=

女満別(RJCM)
5/24 2h
TAF RJCM 231705Z 2318/2500 36007KT 9999 FEW005 BKN015 TEMPO
2318/2403 3000 -SHRA BR FEW003 BKN005 TEMPO 2403/2406 4000
-SHRA BR FEW005 BKN008 TEMPO 2406/2412 FEW005 BKN008=

函館(RJCH)
5/24 2h
TAF RJCH 231705Z 2318/2500 28008KT 9999 FEW008 BKN015 TEMPO
2318/2320 FEW005 BKN008 TEMPO 2320/2400 4000 -SHRA BR
FEW005 BKN008=

青森(RJSA)
5/24 2h
TAF RJSA 231707Z 2318/2500 26014KT 9999 FEW008 BKN012 TEMPO
2321/2400 FEW003 BKN005 TEMPO 2400/2404 4000 -SHRA BR
FEW003 BKN005=

秋田(RJSK)
5/24 2h
TAF RJSK 231707Z 2318/2500 12004KT 9999 FEW008 BKN012 BECMG
2321/2323 26010KT TEMPO 2323/2403 FEW005 BKN008 TEMPO
2403/2406 4000 -SHRA BR FEW005 BKN008=

花巻(RJSI)
5/24 2h
TAF RJSI 231707Z 2318/2500 02004KT 9999 FEW030 SCT050 BECMG
2323/2401 27008KT BECMG 2406/2409 30008KT=

仙台(RJSS)
5/24 2h
TAF RJSS 231713Z 2318/2500 04004KT 8000 FEW020 TEMPO 2318/2400 3000
BR FEW001 BKN003 BECMG 2322/2400 14010KT BECMG 2404/2406
32012KT=

福島(RJSF)
5/24 2h
TAF RJSF 231713Z 2318/2500 15004KT 9999 FEW020 BECMG 2321/2323
32012KT=
Copyright(c) 2014 International Meteorological & Oceanographic Consultants Co,.Ltd. All Rights Reserved. Design by http://f-tpl.com